createdAt,value
2018-12-13T00:03:13.469Z,18.57
2018-12-13T00:08:18.426Z,16.67
2018-12-13T00:13:21.532Z,18.33
2018-12-13T00:18:24.359Z,20.50
2018-12-13T00:23:27.166Z,21.40
2018-12-13T00:28:29.957Z,23.30
2018-12-13T00:33:32.829Z,22.07
2018-12-13T00:38:35.524Z,21.73
2018-12-13T00:43:38.253Z,22.80
2018-12-13T00:48:41.275Z,23.90
2018-12-13T00:53:43.993Z,24.97
2018-12-13T00:58:46.975Z,24.70
2018-12-13T01:03:49.966Z,25.53
2018-12-13T01:08:53.166Z,26.57
2018-12-13T01:13:56.106Z,25.57
2018-12-13T01:18:59.006Z,25.67
2018-12-13T01:24:01.739Z,27.63
2018-12-13T01:29:04.639Z,26.93
2018-12-13T01:34:08.609Z,27.13
2018-12-13T01:39:11.515Z,27.10
2018-12-13T01:44:14.316Z,26.93
2018-12-13T01:49:17.221Z,28.37
2018-12-13T01:54:19.965Z,26.07
2018-12-13T01:59:23.211Z,24.60
2018-12-13T02:04:25.991Z,25.73
2018-12-13T02:09:29.046Z,27.37
2018-12-13T02:14:32.010Z,25.10
2018-12-13T02:19:34.818Z,24.57
2018-12-13T02:24:37.681Z,24.30
2018-12-13T02:29:43.313Z,23.70
2018-12-13T02:34:46.292Z,23.07
2018-12-13T02:39:49.329Z,23.40
2018-12-13T02:44:51.995Z,22.70
2018-12-13T02:49:54.896Z,20.90
2018-12-13T02:54:57.935Z,22.83
2018-12-13T03:00:00.759Z,24.03
2018-12-13T03:05:04.739Z,22.87
2018-12-13T03:10:08.289Z,23.20
2018-12-13T03:15:11.083Z,22.53
2018-12-13T03:20:14.288Z,22.60
2018-12-13T03:25:17.464Z,23.40
2018-12-13T03:30:20.286Z,22.80
2018-12-13T03:35:23.337Z,23.03
2018-12-13T03:40:28.478Z,22.90
2018-12-13T03:45:31.922Z,23.73
2018-12-13T03:50:34.803Z,24.73
2018-12-13T03:55:38.152Z,24.17
2018-12-13T04:00:41.896Z,25.13
2018-12-13T04:05:45.119Z,24.83
2018-12-13T04:10:48.067Z,24.47
2018-12-13T04:15:50.949Z,23.80
2018-12-13T04:20:53.908Z,23.93
2018-12-13T04:25:57.043Z,24.73
2018-12-13T04:31:00.029Z,23.47
2018-12-13T04:36:02.945Z,25.27
2018-12-13T04:41:05.897Z,24.07
2018-12-13T04:46:08.832Z,24.33
2018-12-13T04:51:11.700Z,22.87
2018-12-13T04:56:14.595Z,23.93
2018-12-13T05:01:17.669Z,25.27
2018-12-13T05:06:20.542Z,23.67
2018-12-13T05:11:23.413Z,25.23
2018-12-13T05:16:26.265Z,25.27
2018-12-13T05:21:29.014Z,23.93
2018-12-13T05:26:31.756Z,24.37
2018-12-13T05:31:34.741Z,24.70
2018-12-13T05:36:38.004Z,22.20
2018-12-13T05:41:40.787Z,23.63
2018-12-13T05:46:43.608Z,23.47
2018-12-13T05:51:46.257Z,24.07
2018-12-13T05:56:49.135Z,24.80
2018-12-13T06:01:51.950Z,24.10
2018-12-13T06:06:54.911Z,25.57
2018-12-13T06:11:58.778Z,25.37
2018-12-13T06:17:02.348Z,25.37
2018-12-13T06:22:05.255Z,26.20
2018-12-13T06:27:08.402Z,26.40
2018-12-13T06:32:11.388Z,23.77
2018-12-13T06:37:14.422Z,23.53
2018-12-13T06:42:17.098Z,24.97
2018-12-13T06:47:19.852Z,23.37
2018-12-13T06:52:22.900Z,23.93
2018-12-13T06:57:25.965Z,23.93
2018-12-13T07:02:29.374Z,22.40
2018-12-13T07:07:32.177Z,22.30
2018-12-13T07:12:35.041Z,21.93
2018-12-13T07:17:37.755Z,20.73
2018-12-13T07:22:40.749Z,20.63
2018-12-13T07:27:43.490Z,20.93
2018-12-13T07:32:46.293Z,19.53
2018-12-13T07:37:49.104Z,20.13
2018-12-13T07:42:51.974Z,21.30
2018-12-13T07:47:54.864Z,19.87
2018-12-13T07:52:57.760Z,21.50
2018-12-13T07:58:00.473Z,20.43
2018-12-13T08:03:03.456Z,19.67
2018-12-13T08:08:06.495Z,19.93
2018-12-13T08:13:11.163Z,19.47
2018-12-13T08:18:13.886Z,20.10
2018-12-13T08:23:18.833Z,19.53
2018-12-13T08:28:21.760Z,20.50
2018-12-13T08:33:24.661Z,19.13
2018-12-13T08:38:27.518Z,19.50
2018-12-13T08:43:30.644Z,19.97
2018-12-13T08:48:33.556Z,20.00
2018-12-13T08:53:36.261Z,18.20
2018-12-13T08:58:38.972Z,17.90
2018-12-13T09:03:42.100Z,17.33
2018-12-13T09:08:44.926Z,18.03
2018-12-13T09:13:47.746Z,16.17
2018-12-13T09:18:50.649Z,17.80
2018-12-13T09:23:53.536Z,17.80
2018-12-13T09:28:56.232Z,18.60
2018-12-13T09:33:59.164Z,17.23
2018-12-13T09:39:02.256Z,15.80
2018-12-13T09:49:22.909Z,15.93
2018-12-13T09:54:27.032Z,17.90
2018-12-13T09:59:30.066Z,17.00
2018-12-13T10:04:32.772Z,18.83
2018-12-13T10:09:35.865Z,17.87
2018-12-13T10:14:38.633Z,17.73
2018-12-13T10:19:41.504Z,17.57
2018-12-13T10:24:44.296Z,17.57
2018-12-13T10:29:47.383Z,18.57
2018-12-13T10:34:50.137Z,17.53
2018-12-13T10:39:52.885Z,17.80
2018-12-13T10:44:55.644Z,17.67
2018-12-13T10:49:58.412Z,18.40
2018-12-13T10:55:01.237Z,21.67
2018-12-13T11:05:27.328Z,18.53
2018-12-13T11:10:30.476Z,19.57
2018-12-13T11:15:33.452Z,17.60
2018-12-13T11:20:36.346Z,19.93
2018-12-13T11:25:39.321Z,18.53
2018-12-13T11:30:42.346Z,18.77
2018-12-13T11:35:45.369Z,17.73
2018-12-13T11:40:48.220Z,16.57
2018-12-13T11:45:50.867Z,16.10
2018-12-13T11:50:53.804Z,17.67
2018-12-13T11:55:56.739Z,17.30
2018-12-13T12:00:59.731Z,17.87
2018-12-13T12:06:02.674Z,16.90
2018-12-13T12:11:05.615Z,17.23
2018-12-13T12:16:09.270Z,17.47
2018-12-13T12:21:12.151Z,18.77
2018-12-13T12:26:15.169Z,18.20
2018-12-13T12:31:18.186Z,18.97
2018-12-13T12:36:20.876Z,19.00
2018-12-13T12:41:23.932Z,18.47
2018-12-13T12:46:26.826Z,20.93
2018-12-13T12:51:30.026Z,20.00
2018-12-13T12:56:34.028Z,19.80
2018-12-13T13:01:36.808Z,19.33
2018-12-13T13:06:39.543Z,19.00
2018-12-13T13:11:42.407Z,18.77
2018-12-13T13:16:45.226Z,18.90
2018-12-13T13:21:47.997Z,17.93
2018-12-13T13:26:51.747Z,17.70
2018-12-13T13:31:54.684Z,16.73
2018-12-13T13:36:57.542Z,14.53
2018-12-13T13:42:00.898Z,14.43
2018-12-13T13:47:04.824Z,21.53
2018-12-13T13:52:08.679Z,16.40
2018-12-13T13:57:11.934Z,15.83
2018-12-13T14:02:15.762Z,17.00
2018-12-13T14:07:18.884Z,16.37
2018-12-13T14:12:21.632Z,15.83
2018-12-13T14:17:24.396Z,19.97
2018-12-13T14:22:27.357Z,15.73
2018-12-13T14:27:30.077Z,14.73
2018-12-13T14:32:33.040Z,16.77
2018-12-13T14:37:35.855Z,15.23
2018-12-13T14:42:38.724Z,15.60
2018-12-13T14:47:41.440Z,14.83
2018-12-13T14:52:44.348Z,15.50
2018-12-13T14:57:47.255Z,15.77
2018-12-13T15:02:50.092Z,16.53
2018-12-13T15:07:53.368Z,16.37
2018-12-13T15:12:56.163Z,17.03
2018-12-13T15:17:59.022Z,16.80
2018-12-13T15:23:01.745Z,17.20
2018-12-13T15:28:04.630Z,17.63
2018-12-13T15:33:07.583Z,19.90
2018-12-13T15:38:11.346Z,20.00
2018-12-13T15:43:13.982Z,18.50
2018-12-13T15:48:16.828Z,16.17
2018-12-13T15:53:19.504Z,16.60
2018-12-13T15:58:22.608Z,14.90
2018-12-13T16:03:26.089Z,13.60
2018-12-13T16:08:28.931Z,12.90
2018-12-13T16:13:31.688Z,11.23
2018-12-13T16:18:34.380Z,10.60
2018-12-13T16:23:37.141Z,10.83
2018-12-13T16:28:39.879Z,10.03
2018-12-13T16:33:42.644Z,11.50
2018-12-13T16:38:45.492Z,11.43
2018-12-13T16:43:48.373Z,11.70
2018-12-13T16:48:51.248Z,12.77
2018-12-13T16:53:54.081Z,13.23
2018-12-13T16:58:56.844Z,12.57
2018-12-13T17:04:00.594Z,14.60
2018-12-13T17:09:05.848Z,14.70
2018-12-13T17:14:11.017Z,16.50
2018-12-13T17:19:13.944Z,15.87
2018-12-13T17:24:16.703Z,15.40
2018-12-13T17:29:20.150Z,16.80
2018-12-13T17:34:22.932Z,16.33
2018-12-13T17:39:25.872Z,16.47
2018-12-13T17:44:28.756Z,15.60
2018-12-13T17:49:31.594Z,15.40
2018-12-13T17:54:34.366Z,16.50
2018-12-13T17:59:37.266Z,15.30
2018-12-13T18:04:41.021Z,15.03
2018-12-13T18:09:44.058Z,17.17
2018-12-13T18:14:47.064Z,16.90
2018-12-13T18:19:49.812Z,17.23
2018-12-13T18:24:53.706Z,17.60
2018-12-13T18:29:56.344Z,17.57
2018-12-13T18:35:00.361Z,18.07
2018-12-13T18:40:05.166Z,17.97
2018-12-13T18:45:08.528Z,17.03
2018-12-13T18:50:11.638Z,17.63
2018-12-13T18:55:15.157Z,17.70
2018-12-13T19:00:17.940Z,19.10
2018-12-13T19:05:20.876Z,21.47
2018-12-13T19:10:24.258Z,19.30
2018-12-13T19:15:27.126Z,16.53
2018-12-13T19:20:30.018Z,15.60
2018-12-13T19:25:32.919Z,16.60
2018-12-13T19:30:35.873Z,16.00
2018-12-13T19:35:38.724Z,17.20
2018-12-13T19:40:41.712Z,16.87
2018-12-13T19:45:44.585Z,17.30
2018-12-13T19:50:47.689Z,18.20
2018-12-13T19:55:50.589Z,17.33
2018-12-13T20:00:53.513Z,17.13
2018-12-13T20:05:56.487Z,16.77
2018-12-13T20:10:59.282Z,16.40
2018-12-13T20:16:04.558Z,17.33
2018-12-13T20:21:08.824Z,17.37
2018-12-13T20:26:13.561Z,21.07
2018-12-13T20:31:16.404Z,18.27
2018-12-13T20:36:19.356Z,27.47
2018-12-13T20:41:22.160Z,17.73
2018-12-13T20:46:24.907Z,18.17
2018-12-13T20:51:28.063Z,17.23
2018-12-13T20:56:30.744Z,15.97
2018-12-13T21:01:33.829Z,16.83
2018-12-13T21:06:37.002Z,15.47
2018-12-13T21:11:39.908Z,14.63
2018-12-13T21:16:42.735Z,15.30
2018-12-13T21:21:45.544Z,15.40
2018-12-13T21:26:48.407Z,14.50
2018-12-13T21:31:51.232Z,14.70
2018-12-13T21:36:54.148Z,13.73
2018-12-13T21:41:57.010Z,14.93
2018-12-13T21:46:59.781Z,15.17
2018-12-13T21:52:02.837Z,15.63
2018-12-13T21:57:06.149Z,16.17
2018-12-13T22:02:09.021Z,16.77
2018-12-13T22:07:11.958Z,16.03
2018-12-13T22:12:16.838Z,16.37
2018-12-13T22:17:19.761Z,16.20
2018-12-13T22:22:22.735Z,16.20
2018-12-13T22:27:25.577Z,15.73
2018-12-13T22:32:28.480Z,16.13
2018-12-13T22:37:31.377Z,18.30
2018-12-13T22:42:34.380Z,16.47
2018-12-13T22:47:37.189Z,16.80
2018-12-13T22:52:40.127Z,17.93
2018-12-13T22:57:43.023Z,17.73
2018-12-13T23:02:45.773Z,16.60
2018-12-13T23:07:48.639Z,16.77
2018-12-13T23:12:52.217Z,17.13
2018-12-13T23:17:55.257Z,17.13
2018-12-13T23:22:57.931Z,17.13
2018-12-13T23:28:00.729Z,17.20
2018-12-13T23:33:03.633Z,18.03
2018-12-13T23:38:06.384Z,17.73
2018-12-13T23:43:09.100Z,17.87
2018-12-13T23:48:12.163Z,17.20
2018-12-13T23:53:14.665Z,18.07
2018-12-13T23:58:17.449Z,18.27
